Time;durP1;ratioP1;P1;durP2;ratioP2;P2;SDS_P1;SDS_P2;PMS_P1;PMS_P2;Temp;Humidity;BMP_temperature;BMP_pressure;BME280_temperature;BME280_humidity;BME280_pressure;Samples;Min_cycle;Max_cycle;Signal;HPM_P1;HPM_P2
2023/12/04 00:01:57;;;;;;;16.60;7.23;;;;;;;-141.97;100.00;46675.41;5094733;28;20194;-86
2023/12/04 00:04:22;;;;;;;13.13;7.53;;;;;;;-141.97;100.00;46239.25;5094360;28;20178;-86
2023/12/04 00:06:48;;;;;;;13.43;6.83;;;;;;;-141.97;100.00;46452.50;5093538;28;20174;-87
2023/12/04 00:09:13;;;;;;;13.93;6.83;;;;;;;-141.97;100.00;46181.59;5094386;28;20293;-86
2023/12/04 00:11:38;;;;;;;10.70;5.17;;;;;;;-141.97;100.00;46077.84;5093753;28;20555;-86
2023/12/04 00:14:04;;;;;;;14.83;7.20;;;;;;;-141.97;100.00;46496.72;5093006;28;20182;-87
2023/12/04 00:16:29;;;;;;;12.43;6.10;;;;;;;-141.97;100.00;46243.09;5093242;28;20171;-87
2023/12/04 00:18:55;;;;;;;12.13;6.93;;;;;;;-141.97;100.00;46104.75;5111152;28;20171;-85
2023/12/04 00:21:20;;;;;;;14.57;6.73;;;;;;;-141.97;100.00;45918.41;5111275;28;20527;-85
2023/12/04 00:23:45;;;;;;;17.47;8.03;;;;;;;-141.97;100.00;46216.19;5093127;28;20631;-87
2023/12/04 00:26:12;;;;;;;14.93;6.97;;;;;;;-141.97;100.00;46508.22;5114979;28;20164;-85
2023/12/04 00:28:38;;;;;;;17.10;9.50;;;;;;;-141.97;100.00;46231.56;5097129;28;20568;-87
2023/12/04 00:31:04;;;;;;;14.00;7.50;;;;;;;-141.97;100.00;46600.47;5132323;27;20434;-86
2023/12/04 00:33:30;;;;;;;15.60;8.47;;;;;;;-141.97;100.00;46473.66;5138700;27;20429;-86
2023/12/04 00:35:56;;;;;;;12.93;7.00;;;;;;;-141.97;100.00;46581.25;5132681;28;20219;-87
2023/12/04 00:38:22;;;;;;;19.10;7.60;;;;;;;-141.97;100.00;46531.28;5120003;28;20230;-87
2023/12/04 00:40:48;;;;;;;15.20;7.43;;;;;;;-141.97;100.00;46045.19;5129744;28;20411;-88
2023/12/04 00:43:13;;;;;;;13.77;6.80;;;;;;;-141.97;100.00;46112.44;5120236;28;20167;-88
2023/12/04 00:45:38;;;;;;;13.80;6.47;;;;;;;-141.97;100.00;46099.00;5096769;28;20167;-88
2023/12/04 00:48:04;;;;;;;15.60;7.57;;;;;;;-141.97;100.00;46581.25;5115574;28;20167;-87
2023/12/04 00:50:29;;;;;;;14.23;6.63;;;;;;;-141.97;100.00;46246.94;5115159;28;20275;-88
2023/12/04 00:52:54;;;;;;;10.97;6.60;;;;;;;-141.97;100.00;46120.13;5114953;28;20637;-87
2023/12/04 00:55:20;;;;;;;13.97;6.17;;;;;;;-141.97;100.00;46081.69;5096837;28;20332;-87
2023/12/04 00:57:46;;;;;;;11.00;6.20;;;;;;;-141.97;100.00;45947.22;5114972;28;20164;-87
2023/12/04 01:00:12;;;;;;;11.50;6.00;;;;;;;-141.97;100.00;46173.91;5115509;28;20167;-87
2023/12/04 01:02:37;;;;;;;16.03;7.60;;;;;;;-141.97;100.00;46227.72;5096859;28;20168;-85
2023/12/04 01:05:03;;;;;;;11.50;6.27;;;;;;;-141.97;100.00;46615.84;5115067;28;20159;-84
2023/12/04 01:07:29;;;;;;;12.93;7.20;;;;;;;-141.97;100.00;46039.44;5115219;28;20183;-83
2023/12/04 01:09:54;;;;;;;13.57;7.50;;;;;;;-141.97;100.00;46049.03;5115053;28;20166;-85
2023/12/04 01:12:21;;;;;;;10.03;5.27;;;;;;;-141.97;100.00;46139.34;5115495;28;20186;-85
2023/12/04 01:14:46;;;;;;;13.43;6.80;;;;;;;-141.97;100.00;46243.09;5115317;28;20194;-85
2023/12/04 01:17:11;;;;;;;13.13;6.23;;;;;;;-141.97;100.00;46172.00;5115446;28;20404;-85
2023/12/04 01:19:37;;;;;;;11.23;6.03;;;;;;;-141.97;100.00;46235.41;5097164;28;20168;-85
2023/12/04 01:22:03;;;;;;;13.33;6.53;;;;;;;-141.97;100.00;46141.25;5115539;28;20167;-86
2023/12/04 01:24:28;;;;;;;11.43;6.53;;;;;;;-141.97;100.00;46241.16;5115351;28;20546;-85
2023/12/04 01:26:53;;;;;;;10.43;5.60;;;;;;;-141.97;100.00;46068.25;5096541;28;20207;-84
2023/12/04 01:29:19;;;;;;;11.83;6.07;;;;;;;-141.97;100.00;46262.28;5096635;28;20219;-85
2023/12/04 01:31:44;;;;;;;9.73;4.77;;;;;;;-141.97;100.00;46243.09;5114396;28;20620;-86
2023/12/04 01:34:09;;;;;;;12.77;5.97;;;;;;;-141.97;100.00;46102.81;5114344;28;20295;-86
2023/12/04 01:36:35;;;;;;;9.87;6.03;;;;;;;-141.97;100.00;46177.75;5114388;28;20190;-87
2023/12/04 01:39:00;;;;;;;11.37;6.00;;;;;;;-141.97;100.00;46077.84;5096265;28;20174;-86
2023/12/04 01:41:26;;;;;;;11.90;6.70;;;;;;;-141.97;100.00;46198.91;5114375;28;20172;-86
2023/12/04 01:43:51;;;;;;;9.63;5.47;;;;;;;-141.97;100.00;46527.44;5095054;28;20163;-86
2023/12/04 01:46:17;;;;;;;10.90;5.43;;;;;;;-141.97;100.00;46133.56;5113886;28;20254;-86
2023/12/04 01:48:45;;;;;;;11.47;5.53;;;;;;;-141.97;100.00;46636.97;5095497;28;20228;-85
2023/12/04 01:51:12;;;;;;;9.83;4.27;;;;;;;-141.97;100.00;46070.16;5114787;28;20397;-85
2023/12/04 01:53:40;;;;;;;13.53;6.67;;;;;;;-141.97;100.00;46246.94;5100134;27;20431;-87
2023/12/04 01:56:06;;;;;;;7.03;3.97;;;;;;;-141.97;100.00;46074.00;5193033;22;20482;-87
2023/12/04 01:58:32;;;;;;;11.17;6.00;;;;;;;-141.97;100.00;46588.94;5114648;28;20448;-88
2023/12/04 02:00:58;;;;;;;14.63;7.87;;;;;;;-141.97;100.00;45962.59;5098495;28;20395;-87
2023/12/04 02:03:24;;;;;;;13.10;5.73;;;;;;;-141.97;100.00;46241.16;5075256;28;20428;-87
2023/12/04 02:05:52;;;;;;;13.33;6.90;;;;;;;-141.97;100.00;46025.97;5075010;28;20605;-88
2023/12/04 02:08:18;;;;;;;15.43;6.03;;;;;;;-141.97;100.00;46569.72;5075208;28;20196;-87
2023/12/04 02:10:44;;;;;;;12.40;6.57;;;;;;;-141.97;100.00;46245.00;5075799;28;20541;-87
2023/12/04 02:13:10;;;;;;;11.47;5.50;;;;;;;-141.97;100.00;46650.44;5075192;28;20176;-88
2023/12/04 02:15:35;;;;;;;10.47;5.60;;;;;;;-141.97;100.00;46385.25;5094322;28;20223;-88
2023/12/04 02:18:03;;;;;;;12.03;5.80;;;;;;;-141.97;100.00;45983.72;5101150;28;20172;-87
2023/12/04 02:20:35;;;;;;;9.03;5.47;;;;;;;-141.97;100.00;46245.00;5094968;28;20225;-87
2023/12/04 02:23:03;;;;;;;10.73;6.10;;;;;;;-141.97;100.00;46540.91;5075155;28;20418;-88
2023/12/04 02:25:30;;;;;;;10.73;5.83;;;;;;;-141.97;100.00;46477.50;5074355;28;20530;-88
2023/12/04 02:27:58;;;;;;;12.13;5.63;;;;;;;-141.97;100.00;46068.25;5092173;28;20431;-87
2023/12/04 02:30:31;;;;;;;11.77;5.77;;;;;;;-141.97;100.00;46246.94;5076337;28;20435;-91
2023/12/04 02:32:59;;;;;;;9.57;5.53;;;;;;;-141.97;100.00;46058.63;5093585;28;20867;-86
2023/12/04 02:35:29;;;;;;;11.17;5.00;;;;;;;-141.97;100.00;46588.94;5078392;28;20453;-88
2023/12/04 02:37:55;;;;;;;9.20;4.53;;;;;;;-141.97;100.00;46381.41;5098831;28;20429;-86
2023/12/04 02:40:21;;;;;;;10.53;5.07;;;;;;;-141.97;100.00;46556.28;5117258;27;20417;-87
2023/12/04 02:42:47;;;;;;;8.70;5.20;;;;;;;-141.97;100.00;45962.59;5094786;28;20477;-88
2023/12/04 02:45:12;;;;;;;10.37;5.00;;;;;;;-141.97;100.00;46079.78;5099815;28;20251;-87
2023/12/04 02:47:38;;;;;;;9.87;4.90;;;;;;;-141.97;100.00;46047.13;5093265;28;20172;-88
2023/12/04 02:50:03;;;;;;;9.70;5.27;;;;;;;-141.97;100.00;46414.09;5074652;28;20183;-86
2023/12/04 02:52:29;;;;;;;8.97;4.57;;;;;;;-141.97;100.00;46246.94;5074389;28;20172;-87
2023/12/04 02:54:54;;;;;;;8.80;4.63;;;;;;;-141.97;100.00;46104.75;5092101;28;20309;-86
2023/12/04 02:57:20;;;;;;;10.60;5.57;;;;;;;-141.97;100.00;46277.66;5076230;28;20223;-86
2023/12/04 02:59:45;;;;;;;8.97;5.47;;;;;;;-141.97;100.00;46627.38;5097554;28;20176;-85
2023/12/04 03:02:11;;;;;;;9.17;4.30;;;;;;;-141.97;100.00;46223.88;5074729;28;20187;-86
2023/12/04 03:04:36;;;;;;;12.30;6.03;;;;;;;-141.97;100.00;46673.47;5094126;28;20164;-88
2023/12/04 03:07:01;;;;;;;11.47;5.93;;;;;;;-141.97;100.00;46473.66;5093516;28;20616;-84
2023/12/04 03:09:27;;;;;;;12.23;5.60;;;;;;;-141.97;100.00;46029.81;5074412;28;20691;-85
2023/12/04 03:11:52;;;;;;;10.93;5.23;;;;;;;-141.97;100.00;46062.47;5092726;28;20168;-85
2023/12/04 03:14:18;;;;;;;10.27;5.30;;;;;;;-141.97;100.00;46417.94;5074488;28;20168;-85
2023/12/04 03:16:43;;;;;;;12.90;6.07;;;;;;;-141.97;100.00;46189.28;5073680;28;20187;-84
2023/12/04 03:19:08;;;;;;;11.63;5.67;;;;;;;-141.97;100.00;46587.00;5073853;28;20172;-85
2023/12/04 03:21:34;;;;;;;10.87;5.83;;;;;;;-141.97;100.00;46273.81;5074034;28;20241;-84
2023/12/04 03:23:59;;;;;;;11.83;6.03;;;;;;;-141.97;100.00;46268.06;5092035;28;20164;-86
2023/12/04 03:26:25;;;;;;;13.03;5.77;;;;;;;-141.97;100.00;45991.41;5091426;28;20612;-85
2023/12/04 03:28:50;;;;;;;12.53;6.80;;;;;;;-141.97;100.00;46158.53;5091446;28;20165;-85
2023/12/04 03:31:16;;;;;;;11.10;5.87;;;;;;;-141.97;100.00;46243.09;5091642;28;20588;-84
2023/12/04 03:33:41;;;;;;;10.07;4.97;;;;;;;-141.97;100.00;46108.59;5073400;28;20636;-85
2023/12/04 03:36:07;;;;;;;11.47;6.07;;;;;;;-141.97;100.00;46254.59;5073807;28;20679;-85
2023/12/04 03:38:32;;;;;;;11.30;6.47;;;;;;;-141.97;100.00;46264.22;5091793;28;20696;-85
2023/12/04 03:40:58;;;;;;;8.13;5.10;;;;;;;-141.97;100.00;46606.22;5091715;28;20493;-85
2023/12/04 03:43:23;;;;;;;11.03;6.17;;;;;;;-141.97;100.00;46166.22;5073863;28;20183;-85
2023/12/04 03:45:49;;;;;;;12.37;5.83;;;;;;;-141.97;100.00;46118.19;5093401;28;20614;-85
2023/12/04 03:48:14;;;;;;;12.23;5.60;;;;;;;-141.97;100.00;46266.13;5094149;28;20179;-86
2023/12/04 03:50:40;;;;;;;13.27;6.23;;;;;;;-141.97;100.00;46273.81;5091587;28;20172;-88
2023/12/04 03:53:05;;;;;;;9.73;6.30;;;;;;;-141.97;100.00;46573.56;5074251;28;20241;-86
2023/12/04 03:55:30;;;;;;;11.37;5.87;;;;;;;-141.97;100.00;46106.66;5071119;28;20628;-88
2023/12/04 03:57:56;;;;;;;10.43;5.90;;;;;;;-141.97;100.00;46604.31;5073146;28;20668;-87
2023/12/04 04:00:22;;;;;;;8.70;4.50;;;;;;;-141.97;100.00;46523.59;5073398;28;20637;-89
2023/12/04 04:02:48;;;;;;;11.60;5.17;;;;;;;-141.97;100.00;46150.84;5072888;28;20430;-88
2023/12/04 04:05:14;;;;;;;9.80;5.37;;;;;;;-141.97;100.00;46465.97;5071452;28;20176;-88
2023/12/04 04:07:40;;;;;;;9.60;4.60;;;;;;;-141.97;100.00;46118.19;5074453;28;20415;-86
2023/12/04 04:10:06;;;;;;;9.13;4.97;;;;;;;-141.97;100.00;46097.06;5075935;28;20240;-88
2023/12/04 04:12:32;;;;;;;9.20;4.77;;;;;;;-141.97;100.00;46266.13;5076633;28;20554;-86
2023/12/04 04:14:57;;;;;;;10.73;5.57;;;;;;;-141.97;100.00;46246.94;5059282;28;20458;-85
2023/12/04 04:17:25;;;;;;;7.70;5.20;;;;;;;-141.97;100.00;46460.19;5060463;28;20179;-86
2023/12/04 04:19:52;;;;;;;11.07;5.80;;;;;;;-141.97;100.00;46252.69;5077917;28;20168;-85
2023/12/04 04:22:17;;;;;;;11.17;4.77;;;;;;;-141.97;100.00;46262.28;5059021;28;20421;-85
2023/12/04 04:24:43;;;;;;;11.60;6.33;;;;;;;-141.97;100.00;46210.41;5078959;28;20399;-85
2023/12/04 04:29:36;;;;;;;11.87;6.07;;;;;;;-141.97;100.00;46635.06;5116351;27;20202;-85
2023/12/04 04:32:02;;;;;;;11.83;6.13;;;;;;;-141.97;100.00;46558.19;5095367;28;20445;-85
2023/12/04 04:34:36;;;;;;;9.97;5.07;;;;;;;-141.97;100.00;46269.97;5081492;28;20199;-87
2023/12/04 04:37:01;;;;;;;11.17;6.57;;;;;;;-141.97;100.00;45947.22;5079093;28;20178;-87
2023/12/04 04:39:27;;;;;;;10.50;5.33;;;;;;;-141.97;100.00;46127.81;5096876;28;20834;-87
2023/12/04 04:41:52;;;;;;;13.63;7.70;;;;;;;-141.97;100.00;46089.38;5077265;28;20620;-88
2023/12/04 04:44:17;;;;;;;16.13;8.60;;;;;;;-141.97;100.00;46514.00;5095253;28;20164;-88
2023/12/04 04:46:44;;;;;;;12.97;6.30;;;;;;;-141.97;100.00;46014.44;5099705;28;20174;-87
2023/12/04 04:49:09;;;;;;;13.03;7.03;;;;;;;-141.97;100.00;46089.38;5094798;28;20169;-88
2023/12/04 04:51:35;;;;;;;11.03;6.50;;;;;;;-141.97;100.00;46677.31;5076989;28;20471;-85
2023/12/04 04:54:01;;;;;;;15.83;8.30;;;;;;;-141.97;100.00;46631.22;5076593;28;20168;-88
2023/12/04 04:56:26;;;;;;;12.77;6.53;;;;;;;-141.97;100.00;46483.25;5076360;28;20200;-88
2023/12/04 04:58:52;;;;;;;12.60;6.40;;;;;;;-141.97;100.00;46506.31;5076363;28;20428;-88
2023/12/04 05:01:17;;;;;;;14.60;7.60;;;;;;;-141.97;100.00;46170.06;5076042;28;20163;-89
2023/12/04 05:03:43;;;;;;;13.37;7.57;;;;;;;-141.97;100.00;46635.06;5076524;28;20156;-89
2023/12/04 05:06:08;;;;;;;17.27;9.03;;;;;;;-141.97;100.00;46296.88;5076421;28;20175;-86
2023/12/04 05:08:34;;;;;;;19.70;11.10;;;;;;;-141.97;100.00;46348.75;5085534;27;20152;-90
2023/12/04 05:10:59;;;;;;;14.53;8.30;;;;;;;-141.97;100.00;46068.25;5102020;28;20160;-87
2023/12/04 05:13:25;;;;;;;13.73;7.87;;;;;;;-141.97;100.00;46166.22;5124442;22;20696;-86
2023/12/04 05:15:50;;;;;;;14.57;7.93;;;;;;;-141.97;100.00;46254.59;5108239;28;20192;-88
2023/12/04 05:18:15;;;;;;;16.70;7.53;;;;;;;-141.97;100.00;46341.06;5107875;28;20624;-86
2023/12/04 05:20:41;;;;;;;17.63;8.13;;;;;;;-141.97;100.00;46187.38;5087475;28;20179;-86
2023/12/04 05:23:06;;;;;;;15.83;7.13;;;;;;;-141.97;100.00;46195.06;5081633;28;20168;-88
2023/12/04 05:25:32;;;;;;;13.23;6.53;;;;;;;-141.97;100.00;46114.34;5101187;28;20164;-87
2023/12/04 05:27:57;;;;;;;14.17;7.40;;;;;;;-141.97;100.00;46646.59;5083534;28;20194;-87
2023/12/04 05:30:23;;;;;;;15.53;7.77;;;;;;;-141.97;100.00;46150.84;5082825;28;20164;-88
2023/12/04 05:32:48;;;;;;;16.13;8.37;;;;;;;-141.97;100.00;46200.81;5101507;28;20187;-89
2023/12/04 05:35:16;;;;;;;19.60;9.60;;;;;;;-141.97;100.00;46131.66;5100375;28;20199;-88
2023/12/04 05:37:41;;;;;;;17.20;9.10;;;;;;;-141.97;100.00;46391.03;5099246;28;20157;-88
2023/12/04 05:40:07;;;;;;;13.17;7.00;;;;;;;-141.97;100.00;46068.25;5080187;28;20417;-87
2023/12/04 05:42:33;;;;;;;14.27;8.07;;;;;;;-141.97;100.00;46275.75;5102245;28;20199;-88
2023/12/04 05:45:00;;;;;;;14.47;7.20;;;;;;;-141.97;100.00;46473.66;5084427;28;20160;-88
2023/12/04 05:47:26;;;;;;;17.50;9.13;;;;;;;-141.97;100.00;46223.88;5100521;28;20152;-86
2023/12/04 05:49:51;;;;;;;20.07;9.90;;;;;;;-141.97;100.00;46204.66;5082273;28;20421;-87
2023/12/04 05:52:16;;;;;;;17.70;8.60;;;;;;;-141.97;100.00;46221.94;5101786;28;20246;-88
2023/12/04 05:54:42;;;;;;;15.47;7.37;;;;;;;-141.97;100.00;46125.88;5101569;28;20241;-88
2023/12/04 05:57:07;;;;;;;11.33;6.73;;;;;;;-141.97;100.00;46235.41;5083622;28;20261;-92
2023/12/04 05:59:33;;;;;;;12.23;6.67;;;;;;;-141.97;100.00;45987.56;5082145;28;20164;-83
2023/12/04 06:01:59;;;;;;;11.03;5.93;;;;;;;-141.97;100.00;46273.81;5091339;28;20180;-84
2023/12/04 06:04:25;;;;;;;29.73;12.83;;;;;;;-141.97;100.00;46189.28;5074159;28;20659;-84
2023/12/04 06:06:50;;;;;;;11.63;6.43;;;;;;;-141.97;100.00;46287.28;5094440;28;20406;-83
2023/12/04 06:09:16;;;;;;;13.17;7.13;;;;;;;-141.97;100.00;46047.13;5094756;28;20160;-84
2023/12/04 06:11:42;;;;;;;11.43;6.03;;;;;;;-141.97;100.00;46304.56;5099547;28;20226;-84
2023/12/04 06:14:07;;;;;;;14.97;8.10;;;;;;;-141.97;100.00;46654.28;5095595;28;20156;-84
2023/12/04 06:16:33;;;;;;;11.60;6.10;;;;;;;-141.97;100.00;46512.06;5094701;28;20164;-84
2023/12/04 06:18:58;;;;;;;13.47;6.93;;;;;;;-141.97;100.00;46596.63;5089250;28;20182;-84
2023/12/04 06:21:23;;;;;;;12.67;7.23;;;;;;;-141.97;100.00;46131.66;5074635;28;20156;-84
2023/12/04 06:23:49;;;;;;;11.30;6.70;;;;;;;-141.97;100.00;46608.16;5073616;28;20560;-84
2023/12/04 06:26:15;;;;;;;15.20;7.57;;;;;;;-141.97;100.00;46212.34;5073598;28;20173;-83
2023/12/04 06:28:41;;;;;;;13.87;7.33;;;;;;;-141.97;100.00;46254.59;5072823;28;20157;-84
2023/12/04 06:31:07;;;;;;;18.90;8.50;;;;;;;-141.97;100.00;46227.72;5079406;28;20245;-84
2023/12/04 06:33:32;;;;;;;16.00;8.60;;;;;;;-141.97;100.00;46246.94;5073136;28;20164;-85
2023/12/04 06:35:58;;;;;;;14.87;7.73;;;;;;;-141.97;100.00;46262.28;5075027;28;20540;-85
2023/12/04 06:38:25;;;;;;;14.50;7.97;;;;;;;-141.97;100.00;46162.38;5054849;28;20177;-86
2023/12/04 06:40:51;;;;;;;12.20;6.00;;;;;;;-141.97;100.00;46100.91;5056931;28;20270;-83
2023/12/04 06:43:18;;;;;;;18.70;7.97;;;;;;;-141.97;100.00;46110.50;5083161;28;20895;-82
2023/12/04 06:45:47;;;;;;;16.93;7.73;;;;;;;-141.97;100.00;46208.50;5059875;28;20225;-86
2023/12/04 06:48:15;;;;;;;17.03;7.93;;;;;;;-141.97;100.00;46106.66;5076259;28;20447;-85
2023/12/04 06:50:41;;;;;;;14.00;7.60;;;;;;;-141.97;100.00;46681.16;5072755;28;20406;-83
2023/12/04 06:53:06;;;;;;;11.00;6.37;;;;;;;-141.97;100.00;46162.38;5073159;28;20457;-84
2023/12/04 06:55:32;;;;;;;10.70;6.27;;;;;;;-141.97;100.00;46688.84;5073401;28;20189;-85
2023/12/04 06:57:57;;;;;;;13.97;6.87;;;;;;;-141.97;100.00;46097.06;5080133;28;20178;-84
2023/12/04 07:02:58;;;;;;;11.37;6.17;;;;;;;-141.97;100.00;46041.34;5641696;22;20245;-85
2023/12/04 07:05:23;;;;;;;16.80;8.47;;;;;;;-141.97;100.00;46642.75;5095523;28;20402;-84
2023/12/04 07:07:49;;;;;;;14.93;8.20;;;;;;;-141.97;100.00;46241.16;5075136;28;20695;-86
2023/12/04 07:10:14;;;;;;;12.93;6.87;;;;;;;-141.97;100.00;46206.56;5073510;28;20680;-84
2023/12/04 07:12:44;;;;;;;14.10;7.93;;;;;;;-141.97;100.00;46212.34;5072477;28;20183;-84
2023/12/04 07:15:11;;;;;;;15.83;8.50;;;;;;;-141.97;100.00;46266.13;5072045;28;20192;-84
2023/12/04 07:17:36;;;;;;;13.10;6.93;;;;;;;-141.97;100.00;46123.97;5054162;28;20763;-84
2023/12/04 07:20:02;;;;;;;22.60;11.00;;;;;;;-141.97;100.00;46538.97;5053797;28;20430;-85
2023/12/04 07:22:27;;;;;;;18.30;10.00;;;;;;;-141.97;100.00;46608.16;5072504;28;20177;-84
2023/12/04 07:24:53;;;;;;;15.70;8.60;;;;;;;-141.97;100.00;46195.06;5074799;28;20708;-85
2023/12/04 07:27:18;;;;;;;16.77;9.20;;;;;;;-141.97;100.00;46246.94;5076421;28;20203;-84
2023/12/04 07:29:44;;;;;;;13.37;7.37;;;;;;;-141.97;100.00;46154.69;5079600;28;20172;-85
2023/12/04 07:32:09;;;;;;;20.43;10.20;;;;;;;-141.97;100.00;46260.38;5061122;28;20180;-84
2023/12/04 07:41:48;;;;;;;13.53;7.27;;;;;;;-141.97;100.00;46519.75;4953383;28;20438;-87
2023/12/04 07:45:14;;;;;;;;;;;;;;;;;;;;;
2023/12/04 07:48:09;;;;;;;18.53;8.40;;;;;;;-141.97;100.00;46504.38;4939129;29;20559;-92
2023/12/04 07:50:35;;;;;;;26.87;10.30;;;;;;;-141.97;100.00;46506.31;4959927;29;20849;-86
2023/12/04 07:56:42;;;;;;;34.97;16.43;;;;;;;-141.97;100.00;46239.25;4893019;29;20258;-93
2023/12/04 07:59:26;;;;;;;22.57;12.10;;;;;;;-141.97;100.00;46702.31;4880329;29;20431;-92
2023/12/04 08:01:51;;;;;;;21.00;10.97;;;;;;;-141.97;100.00;46408.31;4887622;29;20428;-92
2023/12/04 08:04:17;;;;;;;80.93;32.90;;;;;;;-141.97;100.00;46600.47;4896044;29;20423;-90
2023/12/04 08:06:43;;;;;;;25.97;14.67;;;;;;;-141.97;100.00;46617.75;4973005;22;20220;-93
2023/12/04 08:09:12;;;;;;;23.23;12.23;;;;;;;-141.97;100.00;46546.66;5306289;23;20492;-91
2023/12/04 08:12:46;;;;;;;11.80;6.70;;;;;;;-141.97;100.00;46245.00;5147379;22;20224;-92
2023/12/04 08:15:12;;;;;;;16.07;9.10;;;;;;;-141.97;100.00;45981.78;5071893;28;20957;-93
2023/12/04 08:21:32;;;;;;;14.30;7.30;;;;;;;-141.97;100.00;46043.28;4950625;28;20199;-94
2023/12/04 08:27:09;;;;;;;16.43;9.03;;;;;;;-141.97;100.00;46020.22;4930694;28;20544;-91
2023/12/04 08:29:35;;;;;;;11.57;6.47;;;;;;;-141.97;100.00;46162.38;4918782;29;20421;-93
2023/12/04 08:32:00;;;;;;;12.67;6.53;;;;;;;-141.97;100.00;46608.16;4921362;29;20417;-92
2023/12/04 08:34:31;;;;;;;15.10;7.93;;;;;;;-141.97;100.00;46243.09;4920425;29;20177;-94
2023/12/04 08:36:57;;;;;;;13.83;8.50;;;;;;;-141.97;100.00;46066.31;4920869;29;20207;-92
2023/12/04 08:39:34;;;;;;;19.00;9.13;;;;;;;-141.97;100.00;46223.88;4923257;29;20449;-92
2023/12/04 08:42:02;;;;;;;18.10;9.53;;;;;;;-141.97;100.00;46025.97;4897371;29;20734;-94
2023/12/04 08:44:58;;;;;;;;;;;;;;;;;;;;;
2023/12/04 08:47:42;;;;;;;17.83;9.80;;;;;;;-141.97;100.00;46200.81;4895748;29;20465;-95
2023/12/04 08:50:25;;;;;;;14.03;7.53;;;;;;;-141.97;100.00;46214.25;4881225;29;20446;-92
2023/12/04 08:56:10;;;;;;;20.93;11.63;;;;;;;-141.97;100.00;46012.53;4924868;29;21136;-92
2023/12/04 08:58:35;;;;;;;13.13;6.97;;;;;;;-141.97;100.00;45943.38;4954276;28;20816;-92
2023/12/04 09:01:20;;;;;;;14.93;8.00;;;;;;;-141.97;100.00;46016.38;4960356;28;20428;-93
2023/12/04 09:03:52;;;;;;;14.00;8.73;;;;;;;-141.97;100.00;46024.06;5003037;28;20198;-92
2023/12/04 09:06:17;;;;;;;15.90;8.53;;;;;;;-141.97;100.00;46148.94;5019322;28;20413;-92
2023/12/04 09:08:43;;;;;;;20.03;11.37;;;;;;;-141.97;100.00;46156.63;5000405;28;20440;-92
2023/12/04 09:11:08;;;;;;;25.87;12.37;;;;;;;-141.97;100.00;46104.75;5003282;28;20230;-92
2023/12/04 09:13:34;;;;;;;27.83;12.90;;;;;;;-141.97;100.00;46123.97;5043623;28;20569;-93
2023/12/04 09:16:00;;;;;;;16.00;7.67;;;;;;;-141.97;100.00;46196.97;5061467;28;20197;-93
2023/12/04 09:18:25;;;;;;;17.37;9.80;;;;;;;-141.97;100.00;46200.81;5067835;28;20173;-90
2023/12/04 09:20:51;;;;;;;14.63;8.57;;;;;;;-141.97;100.00;46269.97;5169050;23;20235;-91
2023/12/04 09:31:42;;;;;;;20.10;10.83;;;;;;;-141.97;100.00;45889.56;5690888;22;20522;-92
2023/12/04 09:34:09;;;;;;;23.97;13.37;;;;;;;-141.97;100.00;46058.63;5290268;22;20501;-90
2023/12/04 09:36:34;;;;;;;17.80;10.33;;;;;;;-141.97;100.00;46567.81;5022045;28;20292;-91
2023/12/04 09:39:00;;;;;;;29.83;14.90;;;;;;;-141.97;100.00;46170.06;5024284;28;20929;-91
2023/12/04 09:41:26;;;;;;;21.40;12.03;;;;;;;-141.97;100.00;46187.38;5006342;28;20542;-91
2023/12/04 09:43:52;;;;;;;30.47;14.30;;;;;;;-141.97;100.00;46074.00;5010802;28;20183;-91
2023/12/04 09:46:18;;;;;;;28.97;13.43;;;;;;;-141.97;100.00;46127.81;5018862;28;20159;-92
2023/12/04 09:48:44;;;;;;;42.47;20.07;;;;;;;-141.97;100.00;46300.72;5020128;28;20170;-90
2023/12/04 09:51:10;;;;;;;40.50;18.83;;;;;;;-141.97;100.00;46143.19;5017967;28;20182;-92
2023/12/04 09:53:36;;;;;;;34.93;17.27;;;;;;;-141.97;100.00;46158.53;5018282;28;20174;-91
2023/12/04 09:56:07;;;;;;;17.27;10.00;;;;;;;-141.97;100.00;46185.44;5019322;28;20198;-91
2023/12/04 09:58:34;;;;;;;17.27;9.37;;;;;;;-141.97;100.00;46158.53;5018362;28;20236;-86
2023/12/04 10:01:03;;;;;;;17.83;11.27;;;;;;;-141.97;100.00;46056.72;5019728;28;20167;-89
2023/12/04 10:03:29;;;;;;;16.63;9.40;;;;;;;-141.97;100.00;46439.06;5017171;28;20237;-92
2023/12/04 10:05:55;;;;;;;20.90;10.97;;;;;;;-141.97;100.00;45928.00;5016595;28;20158;-92
2023/12/04 10:08:21;;;;;;;24.73;13.27;;;;;;;-141.97;100.00;46154.69;5017981;28;20174;-91
2023/12/04 10:10:47;;;;;;;13.17;8.20;;;;;;;-141.97;100.00;45928.00;5019461;28;20832;-92
2023/12/04 10:13:12;;;;;;;19.60;9.27;;;;;;;-141.97;100.00;46195.06;5024433;28;20230;-93
2023/12/04 10:15:48;;;;;;;10.23;7.00;;;;;;;-141.97;100.00;45868.44;5031667;28;20190;-94
2023/12/04 10:18:31;;;;;;;18.47;9.07;;;;;;;-141.97;100.00;46583.16;5030863;28;20170;-91
2023/12/04 10:20:58;;;;;;;15.83;9.37;;;;;;;-141.97;100.00;46185.44;5024750;28;20200;-90
2023/12/04 10:23:43;;;;;;;23.27;11.63;;;;;;;-141.97;100.00;46193.13;5019299;28;20187;-91
2023/12/04 10:26:08;;;;;;;19.77;9.07;;;;;;;-141.97;100.00;46168.16;5018433;28;20162;-92
2023/12/04 10:28:37;;;;;;;18.57;9.83;;;;;;;-141.97;100.00;46544.75;5016383;28;20276;-90
2023/12/04 10:31:06;;;;;;;21.13;9.20;;;;;;;-141.97;100.00;46162.38;5013386;28;20310;-91
2023/12/04 10:33:32;;;;;;;12.93;7.57;;;;;;;-141.97;100.00;46150.84;5014576;28;20265;-94
2023/12/04 10:35:58;;;;;;;15.07;8.70;;;;;;;-141.97;100.00;45878.06;5016116;28;20198;-93
2023/12/04 10:38:23;;;;;;;16.83;9.67;;;;;;;-141.97;100.00;46137.41;5014675;28;20233;-91
2023/12/04 10:40:49;;;;;;;17.07;9.70;;;;;;;-141.97;100.00;46535.13;5014028;28;20716;-92
2023/12/04 10:43:24;;;;;;;11.80;7.43;;;;;;;-141.97;100.00;45893.41;5009588;28;20194;-92
2023/12/04 10:45:51;;;;;;;21.83;12.80;;;;;;;-141.97;100.00;46162.38;4999218;28;20162;-92
2023/12/04 10:48:18;;;;;;;16.07;9.67;;;;;;;-141.97;100.00;46154.69;4997236;28;20178;-93
2023/12/04 10:50:46;;;;;;;17.83;10.53;;;;;;;-141.97;100.00;45904.94;4996057;28;20175;-91
2023/12/04 10:53:13;;;;;;;13.97;8.57;;;;;;;-141.97;100.00;45976.03;4995791;28;20172;-90
2023/12/04 10:55:40;;;;;;;17.30;11.83;;;;;;;-141.97;100.00;46467.88;5001688;28;20207;-90
2023/12/04 10:58:15;;;;;;;13.23;8.40;;;;;;;-141.97;100.00;46100.91;5006274;28;20198;-91
2023/12/04 11:00:48;;;;;;;15.83;10.30;;;;;;;-141.97;100.00;46160.47;4996328;28;20666;-92
2023/12/04 11:03:19;;;;;;;17.97;10.70;;;;;;;-141.97;100.00;46391.03;4996757;28;20182;-92
2023/12/04 11:05:49;;;;;;;12.33;7.27;;;;;;;-141.97;100.00;46385.25;4995033;28;20168;-91
2023/12/04 11:08:17;;;;;;;17.57;10.83;;;;;;;-141.97;100.00;46075.94;4994184;28;20186;-91
2023/12/04 11:11:00;;;;;;;16.03;9.33;;;;;;;-141.97;100.00;46175.84;4999176;28;20199;-91
2023/12/04 11:13:32;;;;;;;19.87;12.63;;;;;;;-141.97;100.00;45870.38;4993691;28;20329;-91
2023/12/04 11:16:06;;;;;;;15.90;8.63;;;;;;;-141.97;100.00;46162.38;4994820;28;20206;-90
2023/12/04 11:18:39;;;;;;;18.77;9.53;;;;;;;-141.97;99.89;46385.25;4994831;28;20164;-91
2023/12/04 11:21:22;;;;;;;14.47;8.17;;;;;;;-141.97;100.00;45964.50;4992722;28;20620;-91
2023/12/04 11:23:50;;;;;;;15.60;9.93;;;;;;;-141.97;57.86;45887.66;4992602;28;20699;-93
2023/12/04 11:26:17;;;;;;;13.60;8.57;;;;;;;-141.97;56.91;45954.91;4991550;28;20175;-92
2023/12/04 11:28:44;;;;;;;37.33;18.73;;;;;;;-141.97;57.40;46300.72;4993549;28;20171;-90
2023/12/04 11:31:10;;;;;;;14.60;7.77;;;;;;;-141.97;57.11;46095.16;4999035;28;20245;-92
2023/12/04 11:33:36;;;;;;;26.03;16.10;;;;;;;-141.97;57.63;46054.81;5001547;28;20258;-91
2023/12/04 11:36:09;;;;;;;35.90;21.20;;;;;;;-141.97;56.74;46567.81;4997572;28;20277;-93
2023/12/04 11:38:36;;;;;;;36.47;20.20;;;;;;;-141.97;56.02;46139.34;5670220;22;21115;-93
2023/12/04 11:41:23;;;;;;;28.47;15.10;;;;;;;-141.97;55.81;46533.22;5508766;22;20351;-90